ENGINEERING TRACK TESTING
Weather & Rail Temperature Monitoring
Weather station RUTHBY
Ruthby Interlocking (Newark, DE)
Measurement History
![]() ENGINEERING TRACK TESTING Weather station RUTHBY Ruthby Interlocking (Newark, DE) Measurement History ![]() |
Conditions for past 24 hours (since 09/01/2026 01:31 AM)
| Time | Track 1 E rail | Track 1 W rail | Track 2 E rail | Track 2 W rail | Outside Air Temperature |
Solar Radiation |
Max. Wind | Humidity | Air Pressure | Rain | |
| Speed | Dir | ||||||||||
| 09/02/2026 01:15 AM | 72 °F | 72 °F | 73 °F | 73 °F | 73 °F | 0 watt/m2 | 0 mph | --- | 91 % | 30.027 in Hg | 0 in |
| 09/02/2026 01:00 AM | 72 °F | 72 °F | 73 °F | 73 °F | 73 °F | 0 watt/m2 | 5 mph | E | 91 % | 30.036 in Hg | 0 in |
| 09/02/2026 12:45 AM | 72 °F | 72 °F | 73 °F | 73 °F | 72.9 °F | 0 watt/m2 | 0 mph | --- | 91 % | 30.034 in Hg | 0 in |
| 09/02/2026 12:30 AM | 72 °F | 72 °F | 73 °F | 73 °F | 72.9 °F | 0 watt/m2 | 0 mph | --- | 91 % | 30.049 in Hg | 0 in |
| 09/02/2026 12:15 AM | 72 °F | 72 °F | 73 °F | 73 °F | 72.9 °F | 0 watt/m2 | 0 mph | --- | 91 % | 30.044 in Hg | 0 in |
| 09/02/2026 12:00 AM | 72 °F | 72 °F | 73 °F | 73 °F | 73 °F | 0 watt/m2 | 0 mph | --- | 91 % | 30.044 in Hg | 0 in |
| 09/01/2026 11:45 PM | 72 °F | 72 °F | 73 °F | 73 °F | 72.8 °F | 0 watt/m2 | 0 mph | --- | 91 % | 30.025 in Hg | 0 in |
| 09/01/2026 11:30 PM | 72 °F | 72 °F | 73 °F | 73 °F | 72.8 °F | 0 watt/m2 | 0 mph | --- | 91 % | 30.011 in Hg | 0 in |
| 09/01/2026 11:15 PM | 72 °F | 72 °F | 73 °F | 73 °F | 72.7 °F | 0 watt/m2 | 0 mph | --- | 90 % | 30.015 in Hg | 0 in |
| 09/01/2026 11:00 PM | 72 °F | 72 °F | 73 °F | 73 °F | 72.5 °F | 0 watt/m2 | 0 mph | --- | 90 % | 30.004 in Hg | 0 in |
| 09/01/2026 10:45 PM | 72 °F | 72 °F | 73 °F | 73 °F | 72.5 °F | 0 watt/m2 | 0 mph | --- | 90 % | 29.996 in Hg | 0 in |
| 09/01/2026 10:30 PM | 72 °F | 72 °F | 73 °F | 73 °F | 72.1 °F | 0 watt/m2 | 0 mph | --- | 90 % | 29.983 in Hg | 0 in |
| 09/01/2026 10:15 PM | 72 °F | 72 °F | 72 °F | 73 °F | 72 °F | 0 watt/m2 | 0 mph | --- | 89 % | 29.969 in Hg | 0 in |
| 09/01/2026 10:00 PM | 72 °F | 72 °F | 72 °F | 73 °F | 71.5 °F | 0 watt/m2 | 0 mph | --- | 89 % | 29.963 in Hg | 0 in |
| 09/01/2026 09:45 PM | 72 °F | 72 °F | 73 °F | 73 °F | 71.5 °F | 0 watt/m2 | 0 mph | --- | 88 % | 29.959 in Hg | 0 in |
| 09/01/2026 09:30 PM | 72 °F | 72 °F | 73 °F | 73 °F | 71.7 °F | 0 watt/m2 | 0 mph | --- | 87 % | 29.974 in Hg | 0 in |
| 09/01/2026 09:15 PM | 73 °F | 73 °F | 73 °F | 74 °F | 72.2 °F | 0 watt/m2 | 11 mph | E | 87 % | 29.984 in Hg | 0 in |
| 09/01/2026 09:00 PM | 75 °F | 73 °F | 75 °F | 76 °F | 72.8 °F | 0 watt/m2 | 18 mph | E | 87 % | 29.979 in Hg | 0 in |
| 09/01/2026 08:45 PM | 80 °F | 74 °F | 79 °F | 81 °F | 73.5 °F | 0 watt/m2 | 22 mph | E | 84 % | 29.986 in Hg | 0 in |
| 09/01/2026 08:30 PM | 91 °F | 89 °F | 91 °F | 91 °F | 84.4 °F | 0 watt/m2 | 22 mph | E | 63 % | 29.988 in Hg | 0 in |
| 09/01/2026 08:15 PM | 92 °F | 91 °F | 92 °F | 92 °F | 86.5 °F | 0 watt/m2 | 0 mph | --- | 70 % | 29.917 in Hg | 0 in |
| 09/01/2026 08:00 PM | 93 °F | 91 °F | 93 °F | 93 °F | 87.2 °F | 0 watt/m2 | 0 mph | --- | 69 % | 29.913 in Hg | 0 in |
| 09/01/2026 07:45 PM | 94 °F | 92 °F | 94 °F | 94 °F | 88.1 °F | 0 watt/m2 | 0 mph | --- | 68 % | 29.882 in Hg | 0 in |
| 09/01/2026 07:30 PM | 96 °F | 94 °F | 95 °F | 95 °F | 88.5 °F | 0 watt/m2 | 0 mph | --- | 66 % | 29.905 in Hg | 0 in |
| 09/01/2026 07:15 PM | 97 °F | 96 °F | 96 °F | 97 °F | 88.9 °F | 4 watt/m2 | 0 mph | --- | 66 % | 29.915 in Hg | 0 in |
| 09/01/2026 07:00 PM | 98 °F | 97 °F | 97 °F | 98 °F | 89.1 °F | 6 watt/m2 | 0 mph | --- | 64 % | 29.917 in Hg | 0 in |
| 09/01/2026 06:45 PM | 100 °F | 98 °F | 98 °F | 99 °F | 89.5 °F | 1 watt/m2 | 1 mph | E | 63 % | 29.921 in Hg | 0 in |
| 09/01/2026 06:30 PM | 102 °F | 100 °F | 100 °F | 100 °F | 90.2 °F | 10 watt/m2 | 0 mph | --- | 63 % | 29.915 in Hg | 0 in |
| 09/01/2026 06:15 PM | 104 °F | 101 °F | 101 °F | 102 °F | 91 °F | 8 watt/m2 | 2 mph | E | 62 % | 29.912 in Hg | 0 in |
| 09/01/2026 06:00 PM | 106 °F | 105 °F | 103 °F | 104 °F | 92.2 °F | 22 watt/m2 | 9 mph | E | 60 % | 29.92 in Hg | 0 in |
| 09/01/2026 05:45 PM | 108 °F | 110 °F | 105 °F | 106 °F | 93.3 °F | 42 watt/m2 | 6 mph | E | 60 % | 29.922 in Hg | 0 in |
| 09/01/2026 05:30 PM | 109 °F | 113 °F | 107 °F | 107 °F | 93.4 °F | 62 watt/m2 | 7 mph | E | 61 % | 29.922 in Hg | 0 in |
| 09/01/2026 05:15 PM | 110 °F | 114 °F | 107 °F | 108 °F | 93.1 °F | 68 watt/m2 | 8 mph | E | 61 % | 29.92 in Hg | 0 in |
| 09/01/2026 05:00 PM | 111 °F | 114 °F | 108 °F | 109 °F | 92.8 °F | 69 watt/m2 | 9 mph | E | 60 % | 29.92 in Hg | 0 in |
| 09/01/2026 04:45 PM | 112 °F | 114 °F | 108 °F | 110 °F | 93.1 °F | 68 watt/m2 | 9 mph | E | 59 % | 29.926 in Hg | 0 in |
| 09/01/2026 04:30 PM | 112 °F | 115 °F | 108 °F | 110 °F | 93.4 °F | 94 watt/m2 | 9 mph | E | 59 % | 29.933 in Hg | 0 in |
| 09/01/2026 04:15 PM | 113 °F | 112 °F | 108 °F | 111 °F | 93.5 °F | 88 watt/m2 | 10 mph | E | 60 % | 29.929 in Hg | 0 in |
| 09/01/2026 04:00 PM | 113 °F | 111 °F | 109 °F | 111 °F | 93.4 °F | 99 watt/m2 | 10 mph | E | 59 % | 29.935 in Hg | 0 in |
| 09/01/2026 03:45 PM | 114 °F | 112 °F | 108 °F | 111 °F | 93.7 °F | 104 watt/m2 | 9 mph | E | 58 % | 29.945 in Hg | 0 in |
| 09/01/2026 03:30 PM | 113 °F | 110 °F | 107 °F | 111 °F | 93.1 °F | 94 watt/m2 | 8 mph | E | 60 % | 29.941 in Hg | 0 in |
| 09/01/2026 03:15 PM | 113 °F | 110 °F | 107 °F | 111 °F | 92.8 °F | 103 watt/m2 | 10 mph | E | 59 % | 29.947 in Hg | 0 in |
| 09/01/2026 03:00 PM | 112 °F | 110 °F | 107 °F | 110 °F | 92 °F | 76 watt/m2 | 8 mph | E | 60 % | 29.955 in Hg | 0 in |
| 09/01/2026 02:45 PM | 112 °F | 111 °F | 107 °F | 110 °F | 91.9 °F | 101 watt/m2 | 9 mph | E | 61 % | 29.952 in Hg | 0 in |
| 09/01/2026 02:30 PM | 111 °F | 107 °F | 105 °F | 109 °F | 91.9 °F | 107 watt/m2 | 9 mph | E | 61 % | 29.955 in Hg | 0 in |
| 09/01/2026 02:15 PM | 109 °F | 104 °F | 103 °F | 106 °F | 90.8 °F | 105 watt/m2 | 8 mph | E | 62 % | 29.958 in Hg | 0 in |
| 09/01/2026 02:00 PM | 106 °F | 102 °F | 100 °F | 104 °F | 90.4 °F | 105 watt/m2 | 8 mph | E | 66 % | 29.958 in Hg | 0 in |
| 09/01/2026 01:45 PM | 102 °F | 100 °F | 98 °F | 100 °F | 89.5 °F | 97 watt/m2 | 5 mph | E | 66 % | 29.962 in Hg | 0 in |
| 09/01/2026 01:30 PM | 98 °F | 99 °F | 95 °F | 97 °F | 87.8 °F | 74 watt/m2 | 6 mph | E | 68 % | 29.97 in Hg | 0 in |
| 09/01/2026 01:15 PM | 97 °F | 97 °F | 94 °F | 95 °F | 86.8 °F | 41 watt/m2 | 0 mph | --- | 71 % | 29.976 in Hg | 0 in |
| 09/01/2026 01:00 PM | 97 °F | 98 °F | 94 °F | 95 °F | 86.4 °F | 34 watt/m2 | 3 mph | E | 71 % | 29.98 in Hg | 0 in |
| 09/01/2026 12:45 PM | 97 °F | 97 °F | 94 °F | 96 °F | 86.7 °F | 22 watt/m2 | 2 mph | E | 71 % | 29.986 in Hg | 0 in |
| 09/01/2026 12:30 PM | 98 °F | 99 °F | 95 °F | 96 °F | 87 °F | 40 watt/m2 | 0 mph | --- | 70 % | 29.989 in Hg | 0 in |
| 09/01/2026 12:15 PM | 98 °F | 98 °F | 95 °F | 96 °F | 86.7 °F | 30 watt/m2 | 0 mph | --- | 70 % | 29.994 in Hg | 0 in |
| 09/01/2026 12:00 PM | 99 °F | 98 °F | 95 °F | 97 °F | 86.8 °F | 20 watt/m2 | 2 mph | E | 70 % | 29.993 in Hg | 0 in |
| 09/01/2026 11:45 AM | 100 °F | 101 °F | 96 °F | 98 °F | 87 °F | 46 watt/m2 | 5 mph | E | 69 % | 29.995 in Hg | 0 in |
| 09/01/2026 11:30 AM | 100 °F | 100 °F | 95 °F | 98 °F | 86.7 °F | 59 watt/m2 | 5 mph | E | 69 % | 29.995 in Hg | 0 in |
| 09/01/2026 11:15 AM | 98 °F | 97 °F | 94 °F | 96 °F | 86.3 °F | 82 watt/m2 | 8 mph | E | 70 % | 29.997 in Hg | 0 in |
| 09/01/2026 11:00 AM | 94 °F | 94 °F | 91 °F | 93 °F | 84.5 °F | 70 watt/m2 | 5 mph | E | 75 % | 29.997 in Hg | 0 in |
| 09/01/2026 10:45 AM | 92 °F | 93 °F | 89 °F | 91 °F | 83.9 °F | 49 watt/m2 | 7 mph | E | 76 % | 30.004 in Hg | 0 in |
| 09/01/2026 10:30 AM | 89 °F | 89 °F | 87 °F | 88 °F | 82.4 °F | 83 watt/m2 | 5 mph | E | 78 % | 30.003 in Hg | 0 in |
| 09/01/2026 10:15 AM | 86 °F | 86 °F | 85 °F | 86 °F | 81.4 °F | 34 watt/m2 | 3 mph | E | 80 % | 30.007 in Hg | 0 in |
| 09/01/2026 10:00 AM | 85 °F | 86 °F | 84 °F | 85 °F | 81 °F | 23 watt/m2 | 3 mph | E | 82 % | 29.998 in Hg | 0 in |
| 09/01/2026 09:45 AM | 86 °F | 86 °F | 84 °F | 85 °F | 80.8 °F | 25 watt/m2 | 5 mph | E | 82 % | 29.996 in Hg | 0 in |
| 09/01/2026 09:30 AM | 85 °F | 86 °F | 83 °F | 84 °F | 80.2 °F | 33 watt/m2 | 8 mph | E | 83 % | 29.997 in Hg | 0 in |
| 09/01/2026 09:15 AM | 84 °F | 85 °F | 82 °F | 83 °F | 79.2 °F | 38 watt/m2 | 7 mph | E | 84 % | 30.003 in Hg | 0 in |
| 09/01/2026 09:00 AM | 82 °F | 83 °F | 81 °F | 81 °F | 77.8 °F | 33 watt/m2 | 5 mph | E | 87 % | 30.007 in Hg | 0 in |
| 09/01/2026 08:45 AM | 81 °F | 81 °F | 80 °F | 80 °F | 76.8 °F | 31 watt/m2 | 0 mph | --- | 89 % | 30.016 in Hg | 0 in |
| 09/01/2026 08:30 AM | 78 °F | 79 °F | 78 °F | 78 °F | 76 °F | 24 watt/m2 | 0 mph | --- | 90 % | 30.017 in Hg | 0 in |
| 09/01/2026 08:15 AM | 76 °F | 77 °F | 76 °F | 76 °F | 75.2 °F | 19 watt/m2 | 0 mph | --- | 91 % | 30.014 in Hg | 0 in |
| 09/01/2026 08:00 AM | 75 °F | 76 °F | 75 °F | 75 °F | 74.6 °F | 10 watt/m2 | 0 mph | --- | 90 % | 30.017 in Hg | 0 in |
| 09/01/2026 07:45 AM | 75 °F | 76 °F | 75 °F | 75 °F | 74.4 °F | 9 watt/m2 | 0 mph | --- | 90 % | 30.018 in Hg | 0 in |
| 09/01/2026 07:30 AM | 74 °F | 75 °F | 74 °F | 74 °F | 74.1 °F | 11 watt/m2 | 0 mph | --- | 90 % | 30.016 in Hg | 0 in |
| 09/01/2026 07:15 AM | 73 °F | 74 °F | 74 °F | 74 °F | 73.9 °F | 4 watt/m2 | 0 mph | --- | 90 % | 30.017 in Hg | 0 in |
| 09/01/2026 07:00 AM | 73 °F | 73 °F | 73 °F | 73 °F | 73.5 °F | 0 watt/m2 | 0 mph | --- | 90 % | 30.014 in Hg | 0 in |
| 09/01/2026 06:45 AM | 72 °F | 72 °F | 73 °F | 73 °F | 73.1 °F | 0 watt/m2 | 0 mph | --- | 89 % | 30.021 in Hg | 0 in |
| 09/01/2026 06:30 AM | 72 °F | 72 °F | 73 °F | 73 °F | 73 °F | 0 watt/m2 | 0 mph | --- | 89 % | 30.011 in Hg | 0 in |
| 09/01/2026 06:15 AM | 72 °F | 72 °F | 73 °F | 73 °F | 73 °F | 0 watt/m2 | 0 mph | --- | 89 % | 30.016 in Hg | 0 in |
| 09/01/2026 06:00 AM | 72 °F | 72 °F | 73 °F | 73 °F | 73.1 °F | 0 watt/m2 | 0 mph | --- | 89 % | 30.006 in Hg | 0 in |
| 09/01/2026 05:45 AM | 73 °F | 72 °F | 73 °F | 73 °F | 73 °F | 0 watt/m2 | 0 mph | --- | 88 % | 30.009 in Hg | 0 in |
| 09/01/2026 05:30 AM | 73 °F | 72 °F | 73 °F | 73 °F | 73 °F | 0 watt/m2 | 0 mph | --- | 88 % | 30.012 in Hg | 0 in |
| 09/01/2026 05:15 AM | 73 °F | 72 °F | 73 °F | 73 °F | 72.9 °F | 0 watt/m2 | 0 mph | --- | 88 % | 30.019 in Hg | 0 in |
| 09/01/2026 05:00 AM | 73 °F | 72 °F | 73 °F | 73 °F | 72.9 °F | 0 watt/m2 | 0 mph | --- | 88 % | 30.02 in Hg | 0 in |
| 09/01/2026 04:45 AM | 73 °F | 72 °F | 73 °F | 73 °F | 72.9 °F | 0 watt/m2 | 0 mph | --- | 88 % | 30.018 in Hg | 0 in |
| 09/01/2026 04:30 AM | 73 °F | 72 °F | 73 °F | 73 °F | 73 °F | 0 watt/m2 | 0 mph | --- | 87 % | 30.022 in Hg | 0 in |
| 09/01/2026 04:15 AM | 73 °F | 72 °F | 73 °F | 74 °F | 73.1 °F | 0 watt/m2 | 0 mph | --- | 87 % | 30.021 in Hg | 0 in |
| 09/01/2026 04:00 AM | 73 °F | 72 °F | 74 °F | 74 °F | 73.1 °F | 0 watt/m2 | 0 mph | --- | 87 % | 30.014 in Hg | 0 in |
| 09/01/2026 03:45 AM | 73 °F | 73 °F | 74 °F | 74 °F | 73.3 °F | 0 watt/m2 | 0 mph | --- | 87 % | 30.015 in Hg | 0 in |
| 09/01/2026 03:30 AM | 74 °F | 73 °F | 74 °F | 74 °F | 73.3 °F | 0 watt/m2 | 0 mph | --- | 87 % | 30.019 in Hg | 0 in |
| 09/01/2026 03:15 AM | 74 °F | 73 °F | 74 °F | 74 °F | 73.4 °F | 0 watt/m2 | 0 mph | --- | 87 % | 30.018 in Hg | 0 in |
| 09/01/2026 03:00 AM | 74 °F | 73 °F | 74 °F | 74 °F | 73.4 °F | 0 watt/m2 | 0 mph | --- | 87 % | 30.024 in Hg | 0 in |
| 09/01/2026 02:45 AM | 74 °F | 73 °F | 74 °F | 74 °F | 73.5 °F | 0 watt/m2 | 0 mph | --- | 86 % | 30.033 in Hg | 0 in |
| 09/01/2026 02:30 AM | 74 °F | 73 °F | 74 °F | 74 °F | 73.6 °F | 0 watt/m2 | 0 mph | --- | 86 % | 30.034 in Hg | 0 in |
| 09/01/2026 02:15 AM | 74 °F | 73 °F | 74 °F | 74 °F | 73.8 °F | 0 watt/m2 | 0 mph | --- | 86 % | 30.039 in Hg | 0 in |
| 09/01/2026 02:00 AM | 75 °F | 74 °F | 75 °F | 75 °F | 74 °F | 0 watt/m2 | 0 mph | --- | 86 % | 30.035 in Hg | 0 in |
| 09/01/2026 01:45 AM | 75 °F | 74 °F | 75 °F | 75 °F | 74 °F | 0 watt/m2 | 0 mph | --- | 86 % | 30.042 in Hg | 0 in |